Wetterdaten: Woche 24.07.17 - 30.07.17 (KW30)
Datum Zeit Temperatur Luftfeuchte Luftdruck Niederschlag Windrichtung Sonnenschein Solar Wind
24.07.2017 00:00 15,9 C 89 % 1012,6 hPa 0,0 l/m N 0,00 h 0 W/m 0,0 km/h (0 Bft)
24.07.2017 01:00 15,8 C 88 % 1011,9 hPa 0,0 l/m N 0,00 h 0 W/m 0,0 km/h (0 Bft)
24.07.2017 02:00 15,6 C 91 % 1010,8 hPa 0,0 l/m N 0,00 h 0 W/m 0,0 km/h (0 Bft)
24.07.2017 03:00 15,3 C 94 % 1009,9 hPa 0,0 l/m N 0,00 h 0 W/m 0,0 km/h (0 Bft)
24.07.2017 04:00 14,8 C 94 % 1008,9 hPa 0,0 l/m N 0,00 h 0 W/m 0,0 km/h (0 Bft)
24.07.2017 05:00 14,1 C 96 % 1007,9 hPa 0,0 l/m N 0,00 h 6 W/m 0,0 km/h (0 Bft)
24.07.2017 06:00 14,4 C 97 % 1007,3 hPa 0,0 l/m N 0,33 h 39 W/m 0,0 km/h (0 Bft)
24.07.2017 07:00 14,9 C 97 % 1006,7 hPa 0,0 l/m W 0,00 h 61 W/m 1,5 km/h (1 Bft)
24.07.2017 08:00 15,7 C 96 % 1006,5 hPa 0,0 l/m W-SW 0,00 h 72 W/m 7,0 km/h (2 Bft)
24.07.2017 09:00 15,9 C 94 % 1006,3 hPa 0,4 l/m SW 0,00 h 116 W/m 15,6 km/h (3 Bft)
24.07.2017 10:00 16,0 C 93 % 1006,0 hPa 0,0 l/m SW 0,00 h 178 W/m 16,2 km/h (3 Bft)
24.07.2017 11:00 15,9 C 92 % 1006,1 hPa 0,2 l/m W-SW 0,00 h 200 W/m 21,9 km/h (4 Bft)
24.07.2017 12:00 14,8 C 92 % 1006,5 hPa 0,8 l/m W-NW 0,00 h 184 W/m 16,8 km/h (3 Bft)
24.07.2017 13:00 15,1 C 88 % 1006,9 hPa 0,0 l/m W-NW 0,00 h 350 W/m 18,4 km/h (3 Bft)
24.07.2017 14:00 16,8 C 75 % 1007,3 hPa 0,0 l/m W-NW 0,42 h 540 W/m 20,6 km/h (4 Bft)
24.07.2017 15:00 16,7 C 74 % 1007,7 hPa 0,0 l/m W-NW 0,00 h 206 W/m 13,7 km/h (3 Bft)
24.07.2017 16:00 17,7 C 70 % 1007,8 hPa 0,0 l/m W 0,50 h 374 W/m 17,2 km/h (3 Bft)
24.07.2017 17:00 17,6 C 68 % 1007,6 hPa 0,0 l/m W 0,25 h 281 W/m 17,7 km/h (3 Bft)
24.07.2017 18:00 17,3 C 70 % 1007,9 hPa 0,0 l/m W 0,42 h 241 W/m 18,6 km/h (3 Bft)
24.07.2017 19:00 13,5 C 87 % 1008,8 hPa 3,4 l/m W 0,25 h 83 W/m 16,6 km/h (3 Bft)
24.07.2017 20:00 12,4 C 94 % 1009,1 hPa 0,0 l/m W 0,00 h 19 W/m 5,9 km/h (2 Bft)
24.07.2017 21:00 12,3 C 95 % 1009,4 hPa 0,0 l/m W-SW 0,00 h 0 W/m 5,9 km/h (2 Bft)
24.07.2017 22:00 12,3 C 96 % 1009,5 hPa 2,4 l/m W-SW 0,00 h 0 W/m 8,3 km/h (2 Bft)
24.07.2017 23:00 12,1 C 97 % 1009,1 hPa 0,4 l/m N 0,00 h 0 W/m 0,3 km/h (0 Bft)
25.07.2017 00:00 11,9 C 97 % 1008,8 hPa 0,0 l/m SW 0,00 h 0 W/m 4,4 km/h (1 Bft)
25.07.2017 01:00 11,8 C 97 % 1008,6 hPa 0,0 l/m SW 0,00 h 0 W/m 7,6 km/h (2 Bft)
25.07.2017 02:00 12,0 C 98 % 1008,6 hPa 0,4 l/m W 0,00 h 0 W/m 11,0 km/h (2 Bft)
25.07.2017 03:00 12,1 C 97 % 1008,5 hPa 1,2 l/m W 0,00 h 0 W/m 14,4 km/h (3 Bft)
25.07.2017 04:00 11,8 C 97 % 1008,5 hPa 0,0 l/m W 0,00 h 0 W/m 13,6 km/h (3 Bft)
25.07.2017 05:00 11,4 C 97 % 1008,3 hPa 0,0 l/m W 0,00 h 5 W/m 10,3 km/h (2 Bft)
25.07.2017 06:00 11,3 C 97 % 1008,3 hPa 0,0 l/m W-SW 0,00 h 26 W/m 11,5 km/h (2 Bft)
25.07.2017 07:00 11,5 C 97 % 1008,6 hPa 0,2 l/m W-SW 0,00 h 57 W/m 14,8 km/h (3 Bft)
25.07.2017 08:00 12,1 C 96 % 1008,5 hPa 0,0 l/m W-SW 0,00 h 176 W/m 15,6 km/h (3 Bft)
25.07.2017 09:00 13,0 C 93 % 1008,5 hPa 0,0 l/m W 0,25 h 294 W/m 15,4 km/h (3 Bft)
25.07.2017 10:00 13,1 C 91 % 1008,5 hPa 0,0 l/m W 0,08 h 224 W/m 20,4 km/h (4 Bft)
25.07.2017 11:00 14,6 C 86 % 1008,3 hPa 0,0 l/m W 0,33 h 465 W/m 24,9 km/h (4 Bft)
25.07.2017 12:00 15,1 C 80 % 1008,3 hPa 0,0 l/m W 0,25 h 550 W/m 29,0 km/h (5 Bft)
25.07.2017 13:00 15,7 C 76 % 1008,1 hPa 0,0 l/m W 0,17 h 348 W/m 24,1 km/h (4 Bft)
25.07.2017 14:00 16,6 C 72 % 1008,0 hPa 0,0 l/m W 0,50 h 516 W/m 24,1 km/h (4 Bft)
25.07.2017 15:00 14,3 C 84 % 1008,4 hPa 2,2 l/m W-NW 0,17 h 237 W/m 20,2 km/h (4 Bft)
25.07.2017 16:00 14,0 C 91 % 1008,3 hPa 0,0 l/m W 0,00 h 298 W/m 16,9 km/h (3 Bft)
25.07.2017 17:00 14,3 C 88 % 1008,2 hPa 0,0 l/m W 0,00 h 162 W/m 12,8 km/h (3 Bft)
25.07.2017 18:00 14,4 C 87 % 1008,1 hPa 0,0 l/m W 0,00 h 136 W/m 12,1 km/h (2 Bft)
25.07.2017 19:00 14,5 C 87 % 1008,0 hPa 0,4 l/m W-SW 0,00 h 44 W/m 11,8 km/h (2 Bft)
25.07.2017 20:00 13,5 C 89 % 1008,0 hPa 0,0 l/m W 0,00 h 11 W/m 10,8 km/h (2 Bft)
25.07.2017 21:00 12,8 C 91 % 1008,0 hPa 0,4 l/m W 0,00 h 0 W/m 10,9 km/h (2 Bft)
25.07.2017 22:00 12,8 C 91 % 1007,8 hPa 0,0 l/m W 0,00 h 0 W/m 11,4 km/h (2 Bft)
25.07.2017 23:00 12,5 C 91 % 1007,5 hPa 0,0 l/m SW 0,00 h 0 W/m 13,0 km/h (3 Bft)
26.07.2017 00:00 12,5 C 92 % 1007,1 hPa 0,0 l/m W-SW 0,00 h 0 W/m 17,4 km/h (3 Bft)
26.07.2017 01:00 12,5 C 92 % 1006,7 hPa 0,4 l/m W-SW 0,00 h 0 W/m 25,6 km/h (4 Bft)
26.07.2017 02:00 12,1 C 95 % 1006,4 hPa 1,4 l/m W-SW 0,00 h 0 W/m 23,5 km/h (4 Bft)
26.07.2017 03:00 11,9 C 96 % 1006,1 hPa 0,2 l/m W-SW 0,00 h 0 W/m 23,7 km/h (4 Bft)
26.07.2017 04:00 11,9 C 96 % 1006,0 hPa 1,0 l/m W-SW 0,00 h 0 W/m 22,4 km/h (4 Bft)
26.07.2017 05:00 12,1 C 97 % 1006,1 hPa 2,2 l/m W 0,00 h 0 W/m 22,6 km/h (4 Bft)
26.07.2017 06:00 12,0 C 97 % 1006,4 hPa 1,6 l/m W 0,00 h 13 W/m 24,3 km/h (4 Bft)
26.07.2017 07:00 11,9 C 97 % 1006,9 hPa 1,0 l/m W-SW 0,00 h 20 W/m 20,5 km/h (4 Bft)
26.07.2017 08:00 12,3 C 97 % 1007,6 hPa 0,0 l/m W 0,00 h 79 W/m 20,0 km/h (4 Bft)
26.07.2017 09:00 12,7 C 97 % 1008,2 hPa 0,0 l/m W 0,00 h 116 W/m 19,8 km/h (4 Bft)
26.07.2017 10:00 12,8 C 96 % 1008,4 hPa 0,0 l/m W-SW 0,00 h 154 W/m 24,0 km/h (4 Bft)
26.07.2017 11:00 13,9 C 94 % 1008,4 hPa 0,0 l/m W 0,00 h 277 W/m 22,9 km/h (4 Bft)
26.07.2017 12:00 13,9 C 92 % 1008,8 hPa 0,0 l/m W 0,00 h 88 W/m 17,3 km/h (3 Bft)
26.07.2017 13:00 14,0 C 91 % 1009,4 hPa 0,0 l/m NW 0,00 h 106 W/m 15,0 km/h (3 Bft)
26.07.2017 14:00 13,9 C 93 % 1009,9 hPa 0,2 l/m W 0,00 h 86 W/m 11,8 km/h (2 Bft)
26.07.2017 15:00 14,2 C 92 % 1010,4 hPa 0,0 l/m W 0,00 h 107 W/m 12,6 km/h (3 Bft)
26.07.2017 16:00 14,8 C 89 % 1010,5 hPa 0,0 l/m W-NW 0,00 h 131 W/m 5,9 km/h (2 Bft)
26.07.2017 17:00 15,2 C 87 % 1010,4 hPa 0,0 l/m W-NW 0,00 h 91 W/m 4,4 km/h (1 Bft)
26.07.2017 18:00 15,7 C 83 % 1010,3 hPa 0,0 l/m W-NW 0,00 h 91 W/m 3,6 km/h (1 Bft)
26.07.2017 19:00 16,3 C 78 % 1010,3 hPa 0,0 l/m W-NW 0,50 h 140 W/m 9,7 km/h (2 Bft)
26.07.2017 20:00 15,7 C 77 % 1010,8 hPa 0,0 l/m W-NW 0,00 h 20 W/m 7,5 km/h (2 Bft)
26.07.2017 21:00 14,5 C 81 % 1011,1 hPa 0,0 l/m W 0,00 h 0 W/m 10,1 km/h (2 Bft)
26.07.2017 22:00 13,9 C 83 % 1011,5 hPa 0,0 l/m W 0,00 h 0 W/m 13,0 km/h (3 Bft)
26.07.2017 23:00 13,2 C 86 % 1011,5 hPa 0,0 l/m W 0,00 h 0 W/m 7,5 km/h (2 Bft)
27.07.2017 00:00 11,7 C 91 % 1011,6 hPa 0,0 l/m N 0,00 h 0 W/m 0,0 km/h (0 Bft)
27.07.2017 01:00 11,1 C 95 % 1011,7 hPa 0,0 l/m W-SW 0,00 h 0 W/m 4,2 km/h (1 Bft)
27.07.2017 02:00 12,1 C 95 % 1011,3 hPa 0,0 l/m SW 0,00 h 0 W/m 11,4 km/h (2 Bft)
27.07.2017 03:00 12,4 C 95 % 1011,0 hPa 0,0 l/m SW 0,00 h 0 W/m 14,4 km/h (3 Bft)
27.07.2017 04:00 12,4 C 94 % 1010,6 hPa 0,0 l/m SW 0,00 h 0 W/m 17,3 km/h (3 Bft)
27.07.2017 05:00 12,0 C 93 % 1010,5 hPa 0,0 l/m SW 0,00 h 8 W/m 6,2 km/h (2 Bft)
27.07.2017 06:00 12,5 C 95 % 1010,7 hPa 0,0 l/m SW 0,17 h 31 W/m 14,1 km/h (3 Bft)
27.07.2017 07:00 13,1 C 94 % 1010,8 hPa 0,0 l/m SW 0,00 h 100 W/m 1,9 km/h (1 Bft)
27.07.2017 08:00 14,1 C 93 % 1010,8 hPa 0,0 l/m SW 0,00 h 102 W/m 6,7 km/h (2 Bft)
27.07.2017 09:00 14,5 C 93 % 1011,1 hPa 0,2 l/m W-SW 0,00 h 178 W/m 21,8 km/h (4 Bft)
27.07.2017 10:00 14,0 C 96 % 1011,2 hPa 1,2 l/m SW 0,00 h 221 W/m 23,3 km/h (4 Bft)
27.07.2017 11:00 14,3 C 97 % 1011,1 hPa 1,4 l/m W-SW 0,00 h 211 W/m 21,8 km/h (4 Bft)
27.07.2017 12:00 14,6 C 97 % 1010,9 hPa 0,0 l/m SW 0,00 h 217 W/m 18,2 km/h (3 Bft)
27.07.2017 13:00 15,5 C 96 % 1010,7 hPa 0,0 l/m W-SW 0,00 h 285 W/m 19,0 km/h (3 Bft)
27.07.2017 14:00 16,5 C 94 % 1010,4 hPa 0,0 l/m S-SW 0,25 h 371 W/m 17,0 km/h (3 Bft)
27.07.2017 15:00 18,1 C 90 % 1009,9 hPa 0,0 l/m SW 0,33 h 404 W/m 16,2 km/h (3 Bft)
27.07.2017 16:00 19,0 C 83 % 1009,2 hPa 0,0 l/m W-SW 0,17 h 262 W/m 18,2 km/h (3 Bft)
27.07.2017 17:00 19,6 C 81 % 1008,9 hPa 0,0 l/m W-SW 0,75 h 361 W/m 14,8 km/h (3 Bft)
27.07.2017 18:00 19,7 C 80 % 1008,9 hPa 0,0 l/m W 0,08 h 150 W/m 9,0 km/h (2 Bft)
27.07.2017 19:00 18,9 C 85 % 1008,6 hPa 0,0 l/m W-SW 0,00 h 53 W/m 4,5 km/h (1 Bft)
27.07.2017 20:00 17,5 C 92 % 1008,7 hPa 1,2 l/m W-SW 0,00 h 9 W/m 9,1 km/h (2 Bft)
27.07.2017 21:00 16,5 C 96 % 1008,9 hPa 0,4 l/m N 0,00 h 0 W/m 1,1 km/h (0 Bft)
27.07.2017 22:00 16,2 C 97 % 1009,0 hPa 0,0 l/m W 0,00 h 0 W/m 8,5 km/h (2 Bft)
27.07.2017 23:00 16,2 C 97 % 1009,0 hPa 0,0 l/m SW 0,00 h 0 W/m 6,6 km/h (2 Bft)
28.07.2017 00:00 16,1 C 97 % 1009,1 hPa 0,4 l/m W-SW 0,00 h 0 W/m 7,7 km/h (2 Bft)
28.07.2017 01:00 16,1 C 97 % 1009,4 hPa 3,6 l/m W-SW 0,00 h 0 W/m 6,8 km/h (2 Bft)
28.07.2017 02:00 15,2 C 97 % 1009,9 hPa 1,2 l/m W-NW 0,00 h 0 W/m 11,3 km/h (2 Bft)
28.07.2017 03:00 14,3 C 97 % 1010,6 hPa 0,0 l/m W-SW 0,00 h 0 W/m 7,2 km/h (2 Bft)
28.07.2017 04:00 13,6 C 98 % 1010,7 hPa 0,0 l/m W-SW 0,00 h 0 W/m 6,3 km/h (2 Bft)
28.07.2017 05:00 13,6 C 98 % 1010,7 hPa 0,0 l/m W-SW 0,00 h 0 W/m 2,7 km/h (1 Bft)
28.07.2017 06:00 13,8 C 98 % 1010,8 hPa 0,4 l/m N 0,25 h 17 W/m 0,0 km/h (0 Bft)
28.07.2017 07:00 14,6 C 98 % 1011,1 hPa 0,4 l/m W-SW 0,00 h 51 W/m 7,2 km/h (2 Bft)
28.07.2017 08:00 15,0 C 98 % 1011,8 hPa 0,0 l/m W-SW 0,00 h 114 W/m 3,7 km/h (1 Bft)
28.07.2017 09:00 15,7 C 97 % 1012,5 hPa 0,0 l/m W 0,00 h 133 W/m 7,1 km/h (2 Bft)
28.07.2017 10:00 15,3 C 96 % 1013,3 hPa 0,2 l/m N 0,00 h 126 W/m 1,7 km/h (1 Bft)
28.07.2017 11:00 16,3 C 93 % 1013,5 hPa 0,0 l/m W 0,00 h 321 W/m 8,1 km/h (2 Bft)
28.07.2017 12:00 16,9 C 89 % 1014,1 hPa 0,0 l/m W-SW 0,00 h 236 W/m 9,4 km/h (2 Bft)
28.07.2017 13:00 17,0 C 90 % 1014,4 hPa 0,0 l/m W-SW 0,00 h 265 W/m 8,9 km/h (2 Bft)
28.07.2017 14:00 18,2 C 87 % 1014,3 hPa 0,0 l/m SW 0,33 h 527 W/m 17,0 km/h (3 Bft)
28.07.2017 15:00 19,7 C 79 % 1013,9 hPa 0,0 l/m SW 0,58 h 606 W/m 20,5 km/h (4 Bft)
28.07.2017 16:00 20,8 C 74 % 1013,8 hPa 0,0 l/m SW 0,75 h 571 W/m 21,0 km/h (4 Bft)
28.07.2017 17:00 20,6 C 74 % 1013,7 hPa 0,0 l/m SW 0,83 h 451 W/m 22,9 km/h (4 Bft)
28.07.2017 18:00 20,3 C 74 % 1013,7 hPa 0,0 l/m SW 0,92 h 312 W/m 21,6 km/h (4 Bft)
28.07.2017 19:00 19,4 C 76 % 1013,8 hPa 0,0 l/m SW 0,58 h 129 W/m 15,0 km/h (3 Bft)
28.07.2017 20:00 17,7 C 83 % 1014,2 hPa 0,0 l/m SW 0,00 h 26 W/m 7,0 km/h (2 Bft)
28.07.2017 21:00 16,0 C 88 % 1014,5 hPa 0,0 l/m N 0,00 h 5 W/m 0,8 km/h (0 Bft)
28.07.2017 22:00 14,9 C 93 % 1014,9 hPa 0,0 l/m N 0,00 h 0 W/m 0,0 km/h (0 Bft)
28.07.2017 23:00 15,0 C 94 % 1015,1 hPa 0,0 l/m N 0,00 h 0 W/m 0,0 km/h (0 Bft)
29.07.2017 00:00 15,0 C 95 % 1015,0 hPa 0,0 l/m N 0,00 h 0 W/m 0,0 km/h (0 Bft)
29.07.2017 01:00 14,7 C 96 % 1015,0 hPa 0,0 l/m N 0,00 h 0 W/m 0,0 km/h (0 Bft)
29.07.2017 02:00 14,0 C 96 % 1015,0 hPa 0,0 l/m N 0,00 h 0 W/m 0,0 km/h (0 Bft)
29.07.2017 03:00 13,1 C 97 % 1014,9 hPa 0,0 l/m N 0,00 h 0 W/m 0,0 km/h (0 Bft)
29.07.2017 04:00 12,7 C 98 % 1014,8 hPa 0,0 l/m N 0,00 h 0 W/m 0,0 km/h (0 Bft)
29.07.2017 05:00 12,6 C 98 % 1015,0 hPa 0,0 l/m N 0,00 h 5 W/m 0,0 km/h (0 Bft)
29.07.2017 06:00 12,5 C 98 % 1015,2 hPa 0,0 l/m N 0,17 h 42 W/m 0,0 km/h (0 Bft)
29.07.2017 07:00 14,0 C 98 % 1015,5 hPa 0,0 l/m SW 0,67 h 136 W/m 5,4 km/h (1 Bft)
29.07.2017 08:00 15,7 C 97 % 1015,9 hPa 0,0 l/m SW 0,83 h 282 W/m 6,3 km/h (2 Bft)
29.07.2017 09:00 18,5 C 87 % 1015,9 hPa 0,0 l/m S 0,67 h 370 W/m 8,3 km/h (2 Bft)
29.07.2017 10:00 20,1 C 81 % 1015,8 hPa 0,0 l/m S-SW 0,75 h 529 W/m 12,8 km/h (3 Bft)
29.07.2017 11:00 21,8 C 68 % 1015,6 hPa 0,0 l/m SW 0,83 h 665 W/m 14,9 km/h (3 Bft)
29.07.2017 12:00 22,1 C 69 % 1015,4 hPa 0,0 l/m W-NW 0,58 h 626 W/m 11,5 km/h (2 Bft)
29.07.2017 13:00 23,8 C 65 % 1014,9 hPa 0,0 l/m W-SW 1,00 h 857 W/m 15,7 km/h (3 Bft)
29.07.2017 14:00 24,9 C 62 % 1014,2 hPa 0,0 l/m S-SW 1,00 h 769 W/m 11,4 km/h (2 Bft)
29.07.2017 15:00 24,7 C 62 % 1013,9 hPa 0,0 l/m S-SW 0,58 h 470 W/m 12,8 km/h (3 Bft)
29.07.2017 16:00 25,0 C 61 % 1013,4 hPa 0,0 l/m SW 1,00 h 569 W/m 10,6 km/h (2 Bft)
29.07.2017 17:00 25,8 C 58 % 1012,9 hPa 0,0 l/m S 0,92 h 457 W/m 9,8 km/h (2 Bft)
29.07.2017 18:00 25,7 C 56 % 1012,3 hPa 0,0 l/m S-SW 1,00 h 320 W/m 8,3 km/h (2 Bft)
29.07.2017 19:00 24,7 C 61 % 1011,9 hPa 0,0 l/m S-SW 0,67 h 138 W/m 6,8 km/h (2 Bft)
29.07.2017 20:00 21,6 C 75 % 1012,0 hPa 0,0 l/m N 0,00 h 20 W/m 1,2 km/h (1 Bft)
29.07.2017 21:00 18,8 C 86 % 1011,9 hPa 0,0 l/m N 0,00 h 5 W/m 0,0 km/h (0 Bft)
29.07.2017 22:00 17,5 C 90 % 1011,9 hPa 0,0 l/m N 0,00 h 0 W/m 0,0 km/h (0 Bft)
29.07.2017 23:00 16,7 C 92 % 1011,9 hPa 0,0 l/m N 0,00 h 0 W/m 0,0 km/h (0 Bft)
30.07.2017 00:00 16,0 C 94 % 1011,9 hPa 0,0 l/m N 0,00 h 0 W/m 0,5 km/h (0 Bft)
30.07.2017 01:00 15,6 C 96 % 1011,4 hPa 0,0 l/m N 0,00 h 0 W/m 0,0 km/h (0 Bft)
30.07.2017 02:00 15,2 C 96 % 1011,3 hPa 0,0 l/m N 0,00 h 0 W/m 0,0 km/h (0 Bft)
30.07.2017 03:00 14,9 C 97 % 1011,0 hPa 0,0 l/m N 0,00 h 0 W/m 0,0 km/h (0 Bft)
30.07.2017 04:00 14,7 C 97 % 1011,0 hPa 0,0 l/m N 0,00 h 0 W/m 0,1 km/h (0 Bft)
30.07.2017 05:00 14,4 C 97 % 1010,9 hPa 0,0 l/m N 0,00 h 6 W/m 0,0 km/h (0 Bft)
30.07.2017 06:00 14,8 C 98 % 1011,0 hPa 0,0 l/m N 0,00 h 26 W/m 0,0 km/h (0 Bft)
30.07.2017 07:00 16,0 C 97 % 1011,0 hPa 0,0 l/m N 0,08 h 97 W/m 0,0 km/h (0 Bft)
30.07.2017 08:00 19,5 C 87 % 1011,0 hPa 0,0 l/m S-SW 0,92 h 335 W/m 5,5 km/h (1 Bft)
30.07.2017 09:00 22,4 C 76 % 1010,9 hPa 0,0 l/m S-SW 0,67 h 361 W/m 12,4 km/h (3 Bft)
30.07.2017 10:00 24,7 C 70 % 1010,6 hPa 0,0 l/m S 0,92 h 592 W/m 12,2 km/h (2 Bft)
30.07.2017 11:00 26,4 C 62 % 1010,5 hPa 0,0 l/m S-SW 1,00 h 746 W/m 18,5 km/h (3 Bft)
30.07.2017 12:00 27,7 C 57 % 1010,3 hPa 0,0 l/m W-SW 1,00 h 818 W/m 16,4 km/h (3 Bft)
30.07.2017 13:00 28,6 C 50 % 1009,9 hPa 0,0 l/m W-SW 1,00 h 829 W/m 19,4 km/h (3 Bft)
30.07.2017 14:00 29,3 C 49 % 1009,6 hPa 0,0 l/m W-SW 1,00 h 818 W/m 15,6 km/h (3 Bft)
30.07.2017 15:00 29,7 C 49 % 1009,2 hPa 0,0 l/m W-SW 0,83 h 688 W/m 18,9 km/h (3 Bft)
30.07.2017 16:00 28,9 C 52 % 1009,3 hPa 0,0 l/m W-NW 0,58 h 486 W/m 16,1 km/h (3 Bft)
30.07.2017 17:00 27,0 C 58 % 1009,7 hPa 0,0 l/m W-NW 0,08 h 183 W/m 8,2 km/h (2 Bft)
30.07.2017 18:00 24,5 C 76 % 1009,8 hPa 0,6 l/m SW 0,33 h 205 W/m 9,4 km/h (2 Bft)
30.07.2017 19:00 23,7 C 81 % 1009,6 hPa 0,0 l/m W-SW 0,17 h 109 W/m 1,9 km/h (1 Bft)
30.07.2017 20:00 22,5 C 85 % 1009,9 hPa 0,0 l/m N 0,00 h 18 W/m 0,0 km/h (0 Bft)
30.07.2017 21:00 21,4 C 87 % 1010,5 hPa 0,0 l/m SW 0,00 h 0 W/m 2,4 km/h (1 Bft)
30.07.2017 22:00 19,8 C 85 % 1011,1 hPa 0,0 l/m W-NW 0,00 h 0 W/m 4,0 km/h (1 Bft)
30.07.2017 23:00 18,7 C 89 % 1012,6 hPa 9,2 l/m W-NW 0,00 h 0 W/m 11,8 km/h (2 Bft)
Min-Datum _ 27.07.17 30.07.17 24.07.17 - - - - 24.07.17
_ Min-Zeit 01:15 13:40 10:15 - - - - 00:00
Minimum _ 10,8 C 47 % 1005,9 hPa - - - - 0,0 km/h (0 Bft)
Max-Datum _ 30.07.17 28.07.17 29.07.17 30.07.17 - 24.07.17 25.07.17 30.07.17
_ Max-Zeit 15:40 07:10 08:55 23:40 - 06:00 12:50 23:35
Maximum _ 29,9 C 99 % 1016,1 hPa 9,2 l/m - 0,08 h 1218 W/m 41,8 km/h
W-NW (6 Bft)
Durchschnitt _ 16,3 C 87 % 1010,4 hPa #40,8 l/m W-SW #29:40 h 245 W/m 10,6 km/h (2 Bft)